Time;durP1;ratioP1;P1;durP2;ratioP2;P2;SDS_P1;SDS_P2;PMS_P1;PMS_P2;Temp;Humidity;BMP_temperature;BMP_pressure;BME280_temperature;BME280_humidity;BME280_pressure;Samples;Min_cycle;Max_cycle;Signal;HPM_P1;HPM_P2
2023/10/16 00:02:13;;;;;;;15.00;2.95;;;;;;;;;;5084013;28;20372;-71
2023/10/16 00:04:43;;;;;;;15.40;2.58;;;;;;;;;;5101564;28;20023;-71
2023/10/16 00:07:11;;;;;;;13.10;2.25;;;;;;;;;;5094482;28;20028;-71
2023/10/16 00:09:39;;;;;;;11.43;2.08;;;;;;;;;;5091947;28;20514;-71
2023/10/16 00:12:05;;;;;;;13.07;2.10;;;;;;;;;;5092147;28;20074;-71
2023/10/16 00:14:31;;;;;;;12.15;1.65;;;;;;;;;;5092100;28;20032;-71
2023/10/16 00:16:57;;;;;;;16.38;2.08;;;;;;;;;;5092119;28;20102;-71
2023/10/16 00:19:27;;;;;;;13.23;2.17;;;;;;;;;;5091891;28;20031;-71
2023/10/16 00:21:57;;;;;;;10.45;1.75;;;;;;;;;;5092087;28;20020;-71
2023/10/16 00:24:23;;;;;;;8.40;1.70;;;;;;;;;;5092232;28;20063;-71
2023/10/16 00:26:49;;;;;;;9.55;1.52;;;;;;;;;;5092074;28;20028;-70
2023/10/16 00:29:24;;;;;;;15.65;2.53;;;;;;;;;;5091812;28;20024;-69
2023/10/16 00:31:59;;;;;;;17.75;1.95;;;;;;;;;;5092582;28;20047;-71
2023/10/16 00:34:25;;;;;;;15.32;2.05;;;;;;;;;;5093037;28;20418;-71
2023/10/16 00:36:54;;;;;;;15.45;2.05;;;;;;;;;;5092569;28;20028;-70
2023/10/16 00:39:22;;;;;;;12.07;1.90;;;;;;;;;;5091898;28;20031;-69
2023/10/16 00:41:50;;;;;;;11.20;1.60;;;;;;;;;;5091847;28;20016;-72
2023/10/16 00:44:21;;;;;;;18.88;2.30;;;;;;;;;;5092139;28;20499;-72
2023/10/16 00:46:53;;;;;;;11.43;2.00;;;;;;;;;;5092195;28;20085;-72
2023/10/16 00:49:20;;;;;;;13.15;1.60;;;;;;;;;;5091849;28;20421;-72
2023/10/16 00:51:46;;;;;;;11.45;2.00;;;;;;;;;;5090926;28;20024;-72
2023/10/16 00:54:18;;;;;;;10.20;1.98;;;;;;;;;;5091721;28;20491;-72
2023/10/16 00:56:51;;;;;;;12.68;1.90;;;;;;;;;;5091737;28;20020;-71
2023/10/16 00:59:17;;;;;;;10.05;1.42;;;;;;;;;;5091413;28;20024;-71
2023/10/16 01:01:46;;;;;;;8.07;1.85;;;;;;;;;;5091630;28;20024;-70
2023/10/16 01:04:19;;;;;;;7.78;1.30;;;;;;;;;;5091528;28;20028;-72
2023/10/16 01:06:45;;;;;;;10.68;1.35;;;;;;;;;;5091631;28;20368;-71
2023/10/16 01:09:22;;;;;;;13.73;2.05;;;;;;;;;;5091337;28;20415;-70
2023/10/16 01:11:48;;;;;;;12.05;1.85;;;;;;;;;;5091409;28;20027;-71
2023/10/16 01:14:14;;;;;;;10.13;1.77;;;;;;;;;;5091318;28;20028;-70
2023/10/16 01:16:40;;;;;;;12.63;2.15;;;;;;;;;;5091416;28;20021;-70
2023/10/16 01:19:09;;;;;;;11.48;1.70;;;;;;;;;;5091357;28;20437;-70
2023/10/16 01:21:35;;;;;;;9.93;1.70;;;;;;;;;;5091239;28;20059;-71
2023/10/16 01:24:12;;;;;;;11.43;1.80;;;;;;;;;;5091769;28;20058;-71
2023/10/16 01:26:38;;;;;;;9.20;1.50;;;;;;;;;;5090624;28;20020;-71
2023/10/16 01:29:07;;;;;;;10.45;1.73;;;;;;;;;;5091096;28;20391;-71
2023/10/16 01:31:33;;;;;;;20.25;5.75;;;;;;;;;;5091303;28;20028;-70
2023/10/16 01:33:59;;;;;;;7.32;1.50;;;;;;;;;;5091901;28;20043;-72
2023/10/16 01:36:26;;;;;;;11.65;2.20;;;;;;;;;;5092487;28;20024;-72
2023/10/16 01:38:52;;;;;;;15.05;2.45;;;;;;;;;;5091610;28;20027;-71
2023/10/16 01:41:18;;;;;;;9.65;1.95;;;;;;;;;;5091126;28;20016;-71
2023/10/16 01:43:45;;;;;;;13.75;2.20;;;;;;;;;;5091221;28;20107;-72
2023/10/16 01:46:12;;;;;;;7.82;1.63;;;;;;;;;;5091095;28;20031;-71
2023/10/16 01:48:41;;;;;;;11.70;1.70;;;;;;;;;;5091153;28;20384;-70
2023/10/16 01:51:09;;;;;;;7.53;1.73;;;;;;;;;;5091111;28;20020;-70
2023/10/16 01:53:39;;;;;;;11.60;1.90;;;;;;;;;;5091064;28;20020;-71
2023/10/16 01:56:15;;;;;;;13.73;1.90;;;;;;;;;;5091536;28;20121;-70
2023/10/16 01:58:41;;;;;;;12.88;2.13;;;;;;;;;;5090964;28;20027;-71
2023/10/16 02:01:08;;;;;;;12.25;1.90;;;;;;;;;;5090989;28;20031;-71
2023/10/16 02:03:34;;;;;;;11.25;1.90;;;;;;;;;;5092390;28;20046;-70
2023/10/16 02:06:00;;;;;;;10.15;2.00;;;;;;;;;;5094772;28;20031;-70
2023/10/16 02:08:26;;;;;;;11.20;1.90;;;;;;;;;;5095113;28;20024;-70
2023/10/16 02:10:52;;;;;;;10.20;1.67;;;;;;;;;;5094504;28;20399;-73
2023/10/16 02:13:19;;;;;;;16.25;1.70;;;;;;;;;;5093066;28;20028;-71
2023/10/16 02:15:45;;;;;;;9.95;1.67;;;;;;;;;;5094556;28;20440;-71
2023/10/16 02:18:23;;;;;;;10.70;1.50;;;;;;;;;;5094199;28;20024;-72
2023/10/16 02:20:49;;;;;;;15.85;2.03;;;;;;;;;;5094147;28;20502;-72
2023/10/16 02:23:16;;;;;;;15.10;1.77;;;;;;;;;;5094363;28;20036;-71
2023/10/16 02:25:42;;;;;;;13.35;2.35;;;;;;;;;;5094320;28;20494;-71
2023/10/16 02:28:09;;;;;;;13.57;2.30;;;;;;;;;;5094532;28;20111;-72
2023/10/16 02:30:41;;;;;;;12.23;2.20;;;;;;;;;;5094015;28;20077;-71
2023/10/16 02:33:44;;;;;;;11.77;2.50;;;;;;;;;;5094034;28;20111;-71
2023/10/16 02:35:59;;;;;;;13.55;2.03;;;;;;;;;;5089531;28;20363;-71
2023/10/16 02:38:28;;;;;;;15.20;1.90;;;;;;;;;;5093914;28;20024;-72
2023/10/16 02:41:00;;;;;;;12.20;2.38;;;;;;;;;;5093665;28;20020;-71
2023/10/16 02:43:26;;;;;;;9.57;2.20;;;;;;;;;;5093741;28;20077;-69
2023/10/16 02:45:52;;;;;;;10.27;2.00;;;;;;;;;;5093507;28;20112;-72
2023/10/16 02:48:21;;;;;;;11.02;1.95;;;;;;;;;;5093698;28;20070;-70
2023/10/16 02:50:54;;;;;;;10.68;2.17;;;;;;;;;;5093354;28;20038;-70
2023/10/16 02:53:25;;;;;;;12.40;2.85;;;;;;;;;;5093612;28;20514;-70
2023/10/16 02:55:58;;;;;;;12.88;2.45;;;;;;;;;;5093855;28;20152;-71
2023/10/16 02:58:31;;;;;;;9.75;1.95;;;;;;;;;;5093441;28;20028;-72
2023/10/16 03:00:58;;;;;;;23.08;2.60;;;;;;;;;;5093728;28;20054;-71
2023/10/16 03:03:24;;;;;;;7.68;2.40;;;;;;;;;;5093327;28;20028;-70
2023/10/16 03:05:55;;;;;;;12.73;2.42;;;;;;;;;;5093451;28;20356;-72
2023/10/16 03:08:22;;;;;;;15.70;2.35;;;;;;;;;;5093077;28;20020;-71
2023/10/16 03:10:48;;;;;;;11.13;1.92;;;;;;;;;;5092267;28;20099;-71
2023/10/16 03:13:15;;;;;;;5.97;2.03;;;;;;;;;;5092660;28;20027;-70
2023/10/16 03:15:59;;;;;;;9.60;2.30;;;;;;;;;;5092559;28;20043;-70
2023/10/16 03:18:25;;;;;;;13.75;2.17;;;;;;;;;;5093499;28;20111;-70
2023/10/16 03:21:05;;;;;;;17.60;2.38;;;;;;;;;;5092616;28;20020;-71
2023/10/16 03:23:31;;;;;;;16.65;2.80;;;;;;;;;;5092843;28;20028;-70
2023/10/16 03:25:59;;;;;;;18.58;3.42;;;;;;;;;;5092968;28;20085;-69
2023/10/16 03:28:26;;;;;;;15.25;2.38;;;;;;;;;;5093029;28;20017;-70
2023/10/16 03:30:52;;;;;;;14.45;2.40;;;;;;;;;;5092732;28;20020;-71
2023/10/16 03:33:19;;;;;;;10.63;2.20;;;;;;;;;;5095047;28;20124;-74
2023/10/16 03:35:47;;;;;;;11.02;2.30;;;;;;;;;;5096009;28;20071;-72
2023/10/16 03:38:27;;;;;;;10.73;1.90;;;;;;;;;;5094069;28;20024;-70
2023/10/16 03:40:54;;;;;;;12.07;2.33;;;;;;;;;;5092847;28;20020;-72
2023/10/16 03:43:22;;;;;;;14.00;2.83;;;;;;;;;;5093480;28;20112;-71
2023/10/16 03:45:49;;;;;;;11.50;2.83;;;;;;;;;;5092639;28;20099;-71
2023/10/16 03:48:17;;;;;;;11.13;2.22;;;;;;;;;;5077160;28;20160;-71
2023/10/16 03:50:43;;;;;;;16.15;4.85;;;;;;;;;;5072087;28;20348;-71
2023/10/16 03:53:09;;;;;;;17.15;3.15;;;;;;;;;;5085482;28;20024;-71
2023/10/16 03:55:44;;;;;;;10.55;2.30;;;;;;;;;;5092585;28;20020;-69
2023/10/16 03:58:14;;;;;;;12.18;3.22;;;;;;;;;;5092143;28;20039;-70
2023/10/16 04:00:53;;;;;;;13.38;2.08;;;;;;;;;;5092108;28;20093;-70
2023/10/16 04:03:19;;;;;;;12.48;2.63;;;;;;;;;;5092300;28;20378;-70
2023/10/16 04:05:46;;;;;;;11.15;2.38;;;;;;;;;;5092146;28;20048;-69
2023/10/16 04:08:16;;;;;;;12.35;2.03;;;;;;;;;;5091860;28;20020;-70
2023/10/16 04:10:46;;;;;;;13.30;2.58;;;;;;;;;;5091226;28;20027;-70
2023/10/16 04:13:12;;;;;;;7.63;2.30;;;;;;;;;;5092167;28;20552;-71
2023/10/16 04:18:28;;;;;;;12.98;2.50;;;;;;;;;;5092063;28;20024;-70
2023/10/16 04:21:08;;;;;;;12.50;3.00;;;;;;;;;;5090673;28;20032;-70
2023/10/16 04:23:52;;;;;;;11.40;2.53;;;;;;;;;;5091757;28;20035;-70
2023/10/16 04:31:58;;;;;;;15.63;2.90;;;;;;;;;;5098069;28;20063;-73
2023/10/16 04:34:39;;;;;;;18.33;2.97;;;;;;;;;;5097972;28;20402;-75
2023/10/16 04:37:29;;;;;;;9.60;3.05;;;;;;;;;;5091591;28;20123;-72
2023/10/16 04:47:47;;;;;;;13.55;2.80;;;;;;;;;;5096549;28;20397;-73
2023/10/16 04:50:15;;;;;;;17.40;6.10;;;;;;;;;;5091218;28;20510;-72
2023/10/16 05:04:24;;;;;;;17.33;3.72;;;;;;;;;;5112162;28;20032;-71
2023/10/16 05:06:38;;;;;;;13.90;4.85;;;;;;;;;;5111516;28;20509;-70
2023/10/16 06:14:34;;;;;;;13.73;4.63;;;;;;;;;;5097398;28;20038;-70
2023/10/16 06:17:01;;;;;;;13.60;4.47;;;;;;;;;;5106032;28;20065;-71
2023/10/16 06:19:28;;;;;;;11.13;5.70;;;;;;;;;;5114216;28;20024;-70
2023/10/16 06:21:56;;;;;;;12.88;5.55;;;;;;;;;;5114367;28;20041;-73
2023/10/16 06:24:28;;;;;;;17.42;5.85;;;;;;;;;;5114760;28;20035;-70
2023/10/16 06:26:59;;;;;;;14.63;5.85;;;;;;;;;;5114706;28;20019;-70
2023/10/16 06:29:34;;;;;;;12.57;6.00;;;;;;;;;;5114631;28;20076;-71
2023/10/16 06:32:02;;;;;;;14.20;6.85;;;;;;;;;;5114666;28;20475;-71
2023/10/16 06:34:28;;;;;;;15.45;5.93;;;;;;;;;;5114289;28;20051;-71
2023/10/16 06:36:55;;;;;;;22.65;9.75;;;;;;;;;;5114314;28;20058;-70
2023/10/16 06:39:35;;;;;;;17.88;8.63;;;;;;;;;;5113919;28;20020;-71
2023/10/16 06:42:02;;;;;;;17.15;7.30;;;;;;;;;;5113877;28;20102;-71
2023/10/16 06:44:28;;;;;;;19.90;7.10;;;;;;;;;;5114880;28;20032;-71
2023/10/16 06:47:00;;;;;;;12.93;6.13;;;;;;;;;;5114345;28;20035;-70
2023/10/16 06:49:36;;;;;;;13.10;5.70;;;;;;;;;;5113365;28;20059;-74
2023/10/16 06:52:04;;;;;;;17.52;5.78;;;;;;;;;;5097999;28;20119;-71
2023/10/16 06:54:30;;;;;;;11.40;5.95;;;;;;;;;;5097401;28;20027;-74
2023/10/16 06:57:04;;;;;;;13.05;5.60;;;;;;;;;;5095117;28;20028;-70
2023/10/16 06:59:30;;;;;;;17.95;5.78;;;;;;;;;;5093364;28;20016;-70
2023/10/16 07:01:56;;;;;;;15.70;5.03;;;;;;;;;;5093185;28;20502;-70
2023/10/16 07:04:22;;;;;;;12.75;5.28;;;;;;;;;;5094388;28;20024;-70
2023/10/16 07:06:48;;;;;;;14.95;7.38;;;;;;;;;;5093402;28;20032;-71
2023/10/16 07:09:16;;;;;;;12.63;6.00;;;;;;;;;;5093010;28;20563;-69
2023/10/16 07:11:42;;;;;;;23.38;6.88;;;;;;;;;;5092750;28;20028;-72
2023/10/16 07:14:12;;;;;;;18.63;7.70;;;;;;;;;;5093231;28;20028;-71
2023/10/16 07:16:40;;;;;;;16.92;6.57;;;;;;;;;;5093210;28;20016;-72
2023/10/16 07:19:07;;;;;;;12.88;4.28;;;;;;;;;;5093019;28;20099;-71
2023/10/16 07:21:33;;;;;;;12.23;3.65;;;;;;;;;;5092749;28;20047;-72
2023/10/16 07:24:02;;;;;;;10.80;4.05;;;;;;;;;;5094090;28;20062;-70
2023/10/16 07:26:29;;;;;;;9.35;3.90;;;;;;;;;;5093257;28;20550;-70
2023/10/16 07:28:58;;;;;;;11.18;3.72;;;;;;;;;;5093148;28;20030;-70
2023/10/16 07:31:24;;;;;;;10.27;3.20;;;;;;;;;;5092562;28;20023;-69
2023/10/16 07:33:53;;;;;;;13.02;3.65;;;;;;;;;;5092811;28;20398;-71
2023/10/16 07:36:19;;;;;;;12.57;3.53;;;;;;;;;;5092378;28;20027;-70
2023/10/16 07:38:45;;;;;;;14.50;3.70;;;;;;;;;;5092600;28;20447;-73
2023/10/16 07:41:13;;;;;;;7.70;2.92;;;;;;;;;;5092467;28;20144;-71
2023/10/16 07:43:39;;;;;;;16.10;3.42;;;;;;;;;;5103171;28;20042;-70
2023/10/16 07:48:40;;;;;;;7.90;2.75;;;;;;;;;;5090931;28;20337;-72
2023/10/16 07:51:09;;;;;;;11.13;3.03;;;;;;;;;;5092693;28;20028;-71
2023/10/16 07:53:35;;;;;;;11.73;3.15;;;;;;;;;;5092125;28;20039;-72
2023/10/16 07:56:02;;;;;;;11.27;3.20;;;;;;;;;;5093940;28;20020;-71
2023/10/16 07:58:35;;;;;;;8.13;2.72;;;;;;;;;;5075730;28;20390;-70
2023/10/16 08:03:36;;;;;;;9.73;2.60;;;;;;;;;;5095672;28;20498;-72
2023/10/16 08:06:05;;;;;;;7.30;2.35;;;;;;;;;;5094600;28;20107;-71
2023/10/16 08:08:38;;;;;;;6.55;2.53;;;;;;;;;;5092328;28;20088;-73
2023/10/16 08:11:13;;;;;;;9.70;2.58;;;;;;;;;;5092391;28;20028;-77
2023/10/16 08:13:46;;;;;;;8.45;2.45;;;;;;;;;;5093028;28;20024;-75
2023/10/16 08:16:19;;;;;;;10.00;1.90;;;;;;;;;;5077578;28;20246;-73
2023/10/16 08:18:48;;;;;;;8.07;2.42;;;;;;;;;;5094601;28;20091;-74
2023/10/16 08:21:28;;;;;;;10.13;2.80;;;;;;;;;;5093875;28;20081;-74
2023/10/16 08:23:55;;;;;;;5.82;1.95;;;;;;;;;;5093166;28;20020;-74
2023/10/16 08:26:30;;;;;;;11.95;2.20;;;;;;;;;;5092054;28;20089;-73
2023/10/16 08:29:11;;;;;;;5.90;2.00;;;;;;;;;;5091900;28;20047;-75
2023/10/16 08:31:41;;;;;;;8.73;2.35;;;;;;;;;;5093330;28;20039;-74
2023/10/16 08:34:07;;;;;;;9.18;2.78;;;;;;;;;;5100316;28;20117;-73
2023/10/16 08:36:33;;;;;;;11.55;2.50;;;;;;;;;;5092655;28;20481;-73
2023/10/16 08:39:08;;;;;;;11.63;2.40;;;;;;;;;;5095495;28;20027;-74
2023/10/16 08:41:45;;;;;;;9.82;2.30;;;;;;;;;;5092293;28;20056;-74
2023/10/16 08:44:15;;;;;;;13.98;2.53;;;;;;;;;;5099425;28;20078;-72
2023/10/16 08:49:22;;;;;;;5.35;1.92;;;;;;;;;;5092054;28;20024;-74
2023/10/16 08:51:49;;;;;;;9.30;2.00;;;;;;;;;;5091786;28;20107;-72
2023/10/16 08:57:22;;;;;;;7.28;2.03;;;;;;;;;;5047353;28;20020;-74
2023/10/16 08:59:51;;;;;;;12.73;2.33;;;;;;;;;;5091938;28;20073;-72
2023/10/16 09:02:19;;;;;;;9.50;2.13;;;;;;;;;;5093210;28;20032;-71
2023/10/16 09:04:48;;;;;;;9.35;2.13;;;;;;;;;;5092664;28;20032;-70
2023/10/16 09:07:17;;;;;;;8.52;2.05;;;;;;;;;;5092229;28;20016;-72
2023/10/16 09:09:48;;;;;;;6.22;1.90;;;;;;;;;;5074081;28;20476;-71
2023/10/16 09:12:13;;;;;;;7.65;1.90;;;;;;;;;;5073379;28;20028;-71
2023/10/16 09:14:41;;;;;;;7.78;1.73;;;;;;;;;;5094881;28;20024;-73
2023/10/16 09:17:07;;;;;;;8.98;2.60;;;;;;;;;;5095589;28;20380;-73
2023/10/16 09:19:46;;;;;;;8.50;1.80;;;;;;;;;;5096250;28;20020;-75
2023/10/16 09:22:13;;;;;;;8.43;2.03;;;;;;;;;;5078527;28;20028;-72
2023/10/16 09:24:43;;;;;;;6.00;1.77;;;;;;;;;;5095768;28;20028;-73
2023/10/16 09:27:23;;;;;;;14.57;3.05;;;;;;;;;;5095675;28;20028;-72
2023/10/16 09:29:54;;;;;;;6.75;2.13;;;;;;;;;;5095339;28;20118;-72
2023/10/16 09:32:25;;;;;;;8.93;1.98;;;;;;;;;;5095586;28;20483;-73
2023/10/16 09:34:52;;;;;;;12.57;2.30;;;;;;;;;;5095396;28;20510;-73
2023/10/16 09:37:24;;;;;;;10.57;1.77;;;;;;;;;;5095268;28;20023;-73
2023/10/16 09:39:52;;;;;;;7.32;1.88;;;;;;;;;;5095353;28;20020;-73
2023/10/16 09:42:24;;;;;;;13.45;3.05;;;;;;;;;;5094963;28;20016;-73
2023/10/16 09:44:59;;;;;;;4.80;1.70;;;;;;;;;;5094943;28;20387;-72
2023/10/16 09:47:26;;;;;;;10.93;2.30;;;;;;;;;;5094981;28;20032;-74
2023/10/16 09:49:53;;;;;;;8.93;2.17;;;;;;;;;;5095097;28;20055;-72
2023/10/16 09:52:21;;;;;;;6.72;2.15;;;;;;;;;;5095141;28;20450;-71
2023/10/16 09:54:51;;;;;;;9.25;1.90;;;;;;;;;;5094622;28;20107;-71
2023/10/16 09:57:27;;;;;;;10.63;2.83;;;;;;;;;;5094801;28;20020;-71
2023/10/16 09:59:54;;;;;;;7.75;1.80;;;;;;;;;;5094388;28;20502;-72
2023/10/16 10:02:25;;;;;;;8.73;2.00;;;;;;;;;;5094374;28;20031;-71
2023/10/16 10:04:54;;;;;;;12.07;2.17;;;;;;;;;;5095242;28;20118;-70
2023/10/16 10:07:22;;;;;;;8.93;2.80;;;;;;;;;;5095117;28;20028;-72
2023/10/16 10:09:49;;;;;;;10.20;1.70;;;;;;;;;;5094385;28;20026;-72
2023/10/16 10:12:28;;;;;;;8.25;1.45;;;;;;;;;;5094470;28;20081;-72
2023/10/16 10:15:12;;;;;;;11.95;1.77;;;;;;;;;;5094432;28;20016;-72
2023/10/16 10:17:39;;;;;;;10.38;1.88;;;;;;;;;;5094661;28;20368;-70
2023/10/16 10:20:08;;;;;;;10.77;1.70;;;;;;;;;;5094026;28;20034;-71
2023/10/16 10:22:35;;;;;;;9.10;2.20;;;;;;;;;;5094071;28;20081;-71
2023/10/16 10:25:09;;;;;;;11.68;2.63;;;;;;;;;;5094041;28;20060;-72
2023/10/16 10:27:42;;;;;;;8.57;1.60;;;;;;;;;;5095390;28;20024;-72
2023/10/16 10:30:17;;;;;;;7.38;1.42;;;;;;;;;;5095952;28;20035;-72
2023/10/16 10:32:43;;;;;;;;;;;;;;;;;;5097908;28;20070;-72
2023/10/16 10:35:23;;;;;;;8.73;1.83;;;;;;;;;;5077940;28;19908;-71
2023/10/16 10:37:51;;;;;;;11.20;1.40;;;;;;;;;;5094498;28;20441;-72
2023/10/16 10:40:24;;;;;;;10.80;1.77;;;;;;;;;;5094311;28;20112;-73
2023/10/16 10:42:54;;;;;;;10.10;1.60;;;;;;;;;;5094226;28;20026;-71
2023/10/16 10:45:35;;;;;;;8.00;1.42;;;;;;;;;;5094661;28;20067;-72
2023/10/16 10:48:15;;;;;;;8.55;2.05;;;;;;;;;;5095218;28;20027;-70
2023/10/16 10:50:45;;;;;;;7.45;1.30;;;;;;;;;;5076284;28;20088;-71
2023/10/16 10:53:15;;;;;;;14.13;1.30;;;;;;;;;;5093943;28;20475;-71
2023/10/16 10:55:55;;;;;;;7.80;1.67;;;;;;;;;;5093418;28;20056;-71
2023/10/16 10:58:23;;;;;;;6.38;1.50;;;;;;;;;;5093475;28;20032;-71
2023/10/16 11:00:50;;;;;;;8.20;1.98;;;;;;;;;;5093488;28;20016;-72
2023/10/16 11:03:22;;;;;;;11.10;2.78;;;;;;;;;;5094187;28;20099;-71
2023/10/16 11:05:49;;;;;;;5.10;1.40;;;;;;;;;;5095191;28;20055;-72
2023/10/16 11:10:44;;;;;;;18.00;6.03;;;;;;;;;;5097858;28;20034;-72
2023/10/16 11:13:10;;;;;;;26.58;8.75;;;;;;;;;;5098079;28;20142;-71
2023/10/16 11:15:37;;;;;;;39.83;21.98;;;;;;;;;;5093737;28;20138;-70
2023/10/16 11:18:13;;;;;;;11.68;3.90;;;;;;;;;;5093365;28;20017;-71
2023/10/16 11:20:45;;;;;;;18.25;6.57;;;;;;;;;;5093524;28;20035;-71
2023/10/16 11:23:14;;;;;;;14.80;4.90;;;;;;;;;;5077178;28;20028;-72
2023/10/16 11:25:45;;;;;;;15.73;3.97;;;;;;;;;;5095490;28;20063;-71
2023/10/16 11:28:17;;;;;;;13.05;2.50;;;;;;;;;;5086595;28;20400;-72
2023/10/16 11:30:44;;;;;;;10.73;2.90;;;;;;;;;;5079886;28;20020;-72
2023/10/16 11:33:10;;;;;;;11.05;1.88;;;;;;;;;;5076586;28;20489;-72
2023/10/16 11:35:36;;;;;;;8.57;1.77;;;;;;;;;;5095436;28;20025;-70
2023/10/16 11:38:28;;;;;;;7.25;1.50;;;;;;;;;;5099449;28;20098;-72
2023/10/16 11:40:52;;;;;;;9.75;1.42;;;;;;;;;;5102708;28;20044;-71
2023/10/16 11:43:19;;;;;;;7.90;1.95;;;;;;;;;;5094422;28;20044;-71
2023/10/16 11:45:53;;;;;;;9.05;1.73;;;;;;;;;;5093806;28;20028;-71
2023/10/16 11:50:54;;;;;;;11.65;1.80;;;;;;;;;;5093022;28;20024;-71
2023/10/16 11:53:23;;;;;;;5.05;1.65;;;;;;;;;;5095444;28;20027;-72
2023/10/16 11:55:50;;;;;;;8.20;2.10;;;;;;;;;;5093308;28;20483;-71
2023/10/16 11:58:16;;;;;;;8.93;1.85;;;;;;;;;;5094413;28;20399;-75
2023/10/16 12:00:57;;;;;;;5.20;1.60;;;;;;;;;;5093973;28;20013;-75
2023/10/16 12:03:26;;;;;;;7.85;1.52;;;;;;;;;;5094336;28;20020;-76
2023/10/16 12:05:55;;;;;;;6.00;1.20;;;;;;;;;;5094235;28;20483;-70
2023/10/16 12:08:21;;;;;;;6.45;2.38;;;;;;;;;;5098978;28;20024;-71
2023/10/16 12:10:50;;;;;;;9.77;2.13;;;;;;;;;;5094752;28;20062;-71
2023/10/16 12:13:17;;;;;;;5.35;1.23;;;;;;;;;;5091849;28;20399;-71
2023/10/16 12:15:46;;;;;;;9.20;1.50;;;;;;;;;;5090812;28;20031;-72
2023/10/16 12:18:12;;;;;;;6.85;1.40;;;;;;;;;;5091940;28;20020;-74
2023/10/16 12:20:39;;;;;;;6.88;2.05;;;;;;;;;;5089826;28;20035;-71
2023/10/16 12:23:06;;;;;;;6.75;1.77;;;;;;;;;;5092166;28;20103;-72
2023/10/16 12:25:34;;;;;;;5.93;1.42;;;;;;;;;;5092038;28;20032;-71
2023/10/16 12:28:00;;;;;;;9.13;1.70;;;;;;;;;;5091911;28;20031;-72
2023/10/16 12:30:27;;;;;;;11.88;2.13;;;;;;;;;;5091780;28;20299;-73
2023/10/16 12:32:59;;;;;;;9.25;1.83;;;;;;;;;;5091902;28;20467;-72
2023/10/16 12:35:28;;;;;;;10.77;1.50;;;;;;;;;;5092207;28;20088;-72
2023/10/16 12:37:55;;;;;;;5.95;1.70;;;;;;;;;;5092599;28;20027;-71
2023/10/16 12:40:27;;;;;;;5.25;1.33;;;;;;;;;;5091205;28;20055;-77
2023/10/16 12:42:55;;;;;;;9.50;2.05;;;;;;;;;;5091739;28;20103;-76
2023/10/16 12:45:22;;;;;;;7.50;1.65;;;;;;;;;;5091845;28;20074;-73
2023/10/16 12:47:51;;;;;;;9.20;1.35;;;;;;;;;;5090809;28;20027;-75
2023/10/16 12:50:18;;;;;;;5.50;1.45;;;;;;;;;;5091400;28;20024;-75
2023/10/16 12:52:44;;;;;;;9.82;1.50;;;;;;;;;;5091247;28;20483;-72
2023/10/16 12:55:10;;;;;;;7.75;1.38;;;;;;;;;;5091596;28;20032;-72
2023/10/16 12:57:36;;;;;;;8.95;2.28;;;;;;;;;;5085231;28;20437;-72
2023/10/16 13:00:13;;;;;;;8.25;2.47;;;;;;;;;;5091731;28;20024;-73
2023/10/16 13:02:42;;;;;;;9.65;1.85;;;;;;;;;;5091504;28;20039;-71
2023/10/16 13:05:13;;;;;;;11.05;2.10;;;;;;;;;;5091536;28;20028;-72
2023/10/16 13:07:41;;;;;;;8.73;1.63;;;;;;;;;;5084993;28;20028;-71
2023/10/16 13:10:08;;;;;;;4.38;1.70;;;;;;;;;;5082795;28;20040;-72
2023/10/16 13:12:36;;;;;;;6.55;1.73;;;;;;;;;;5093249;28;20463;-72
2023/10/16 13:15:03;;;;;;;10.25;1.17;;;;;;;;;;5089084;28;20493;-73
2023/10/16 13:17:29;;;;;;;4.20;1.08;;;;;;;;;;5088734;28;20403;-73
2023/10/16 13:19:55;;;;;;;7.43;2.28;;;;;;;;;;5074552;28;20027;-71
2023/10/16 13:22:22;;;;;;;12.30;4.65;;;;;;;;;;5092957;28;20016;-72
2023/10/16 13:24:48;;;;;;;8.60;1.35;;;;;;;;;;5085449;28;20020;-71
2023/10/16 13:27:18;;;;;;;6.60;1.40;;;;;;;;;;5093720;28;20024;-71
2023/10/16 13:29:44;;;;;;;12.00;3.10;;;;;;;;;;5091603;28;20024;-71
2023/10/16 13:32:10;;;;;;;6.32;1.67;;;;;;;;;;5095276;28;20072;-72
2023/10/16 13:34:39;;;;;;;6.60;1.48;;;;;;;;;;5086930;28;20071;-73
2023/10/16 13:37:11;;;;;;;6.88;1.48;;;;;;;;;;5091145;28;20040;-71
2023/10/16 13:39:40;;;;;;;8.88;1.67;;;;;;;;;;5092527;28;20024;-71
2023/10/16 13:42:09;;;;;;;8.55;1.60;;;;;;;;;;5086571;28;20020;-72
2023/10/16 13:44:36;;;;;;;9.35;1.58;;;;;;;;;;5093967;28;20380;-73
2023/10/16 13:47:08;;;;;;;6.32;1.33;;;;;;;;;;5092140;28;21034;-71
2023/10/16 13:49:38;;;;;;;7.82;1.80;;;;;;;;;;5091355;28;20021;-72
2023/10/16 13:52:07;;;;;;;6.60;1.20;;;;;;;;;;5091691;28;20040;-72
2023/10/16 13:54:44;;;;;;;8.70;1.70;;;;;;;;;;5090985;28;20032;-73
2023/10/16 13:57:10;;;;;;;9.73;1.42;;;;;;;;;;5079991;28;20032;-72
2023/10/16 13:59:36;;;;;;;6.70;1.35;;;;;;;;;;5100360;28;20023;-75
2023/10/16 14:02:04;;;;;;;7.50;2.35;;;;;;;;;;5113947;28;20031;-71
2023/10/16 14:04:33;;;;;;;8.85;1.90;;;;;;;;;;5114923;28;20020;-71
2023/10/16 14:06:59;;;;;;;4.75;1.23;;;;;;;;;;5105118;28;20020;-71
2023/10/16 14:09:28;;;;;;;9.32;1.65;;;;;;;;;;5094305;28;20111;-72
2023/10/16 14:11:58;;;;;;;10.35;3.42;;;;;;;;;;5093969;28;20099;-72
2023/10/16 14:14:26;;;;;;;8.18;1.50;;;;;;;;;;5094456;28;20537;-72
2023/10/16 14:16:53;;;;;;;5.93;1.23;;;;;;;;;;5103409;28;20024;-71
2023/10/16 14:19:22;;;;;;;6.30;1.27;;;;;;;;;;5099254;28;20024;-72
2023/10/16 14:21:52;;;;;;;7.03;1.70;;;;;;;;;;5096474;28;20544;-72
2023/10/16 14:24:24;;;;;;;7.15;1.30;;;;;;;;;;5096069;28;20032;-71
2023/10/16 14:26:57;;;;;;;8.85;1.73;;;;;;;;;;5096295;28;20425;-71
2023/10/16 14:29:24;;;;;;;6.25;1.48;;;;;;;;;;5098539;28;20063;-72
2023/10/16 14:31:51;;;;;;;7.55;1.25;;;;;;;;;;5096364;28;20032;-74
2023/10/16 14:34:23;;;;;;;8.02;2.08;;;;;;;;;;5095191;28;20052;-74
2023/10/16 14:36:52;;;;;;;7.82;1.30;;;;;;;;;;5093417;28;20020;-73
2023/10/16 14:39:19;;;;;;;8.02;1.60;;;;;;;;;;5093576;28;20044;-70
2023/10/16 14:41:45;;;;;;;6.45;1.60;;;;;;;;;;5091632;28;20070;-70
2023/10/16 14:44:12;;;;;;;7.10;1.48;;;;;;;;;;5093592;28;20024;-73
2023/10/16 14:46:38;;;;;;;9.23;2.53;;;;;;;;;;5077730;28;20059;-72
2023/10/16 14:49:08;;;;;;;12.18;1.50;;;;;;;;;;5095027;28;20039;-72
2023/10/16 14:51:38;;;;;;;8.45;1.90;;;;;;;;;;5094216;28;20051;-72
2023/10/16 14:54:05;;;;;;;4.10;1.10;;;;;;;;;;5093906;28;20111;-72
2023/10/16 14:56:33;;;;;;;7.55;1.65;;;;;;;;;;5093140;28;20024;-72
2023/10/16 14:58:59;;;;;;;7.22;1.58;;;;;;;;;;5093072;28;20036;-73
2023/10/16 15:01:27;;;;;;;8.55;1.77;;;;;;;;;;5093024;28;20148;-74
2023/10/16 15:03:56;;;;;;;8.48;1.83;;;;;;;;;;5093045;28;20096;-71
2023/10/16 15:06:22;;;;;;;4.75;1.00;;;;;;;;;;5093024;28;20031;-71
2023/10/16 15:08:49;;;;;;;9.60;1.92;;;;;;;;;;5092683;28;20085;-73
2023/10/16 15:11:15;;;;;;;10.85;1.67;;;;;;;;;;5092224;28;20028;-71
2023/10/16 15:13:42;;;;;;;5.75;1.63;;;;;;;;;;5092864;28;20554;-70
2023/10/16 15:16:09;;;;;;;7.75;1.35;;;;;;;;;;5092975;28;20375;-71
2023/10/16 15:18:38;;;;;;;12.82;1.85;;;;;;;;;;5092796;28;20025;-72
2023/10/16 15:21:04;;;;;;;12.73;4.40;;;;;;;;;;5092311;28;20038;-71
2023/10/16 15:23:31;;;;;;;7.55;2.53;;;;;;;;;;5093542;28;20059;-72
2023/10/16 15:25:57;;;;;;;5.50;1.83;;;;;;;;;;5076223;28;20051;-71
2023/10/16 15:28:25;;;;;;;8.93;1.60;;;;;;;;;;5076430;28;20016;-73
2023/10/16 15:30:53;;;;;;;8.13;1.67;;;;;;;;;;5076863;28;20391;-72
2023/10/16 15:33:19;;;;;;;9.52;1.60;;;;;;;;;;5076574;28;20024;-72
2023/10/16 15:35:48;;;;;;;7.80;1.58;;;;;;;;;;5092704;28;20024;-73
2023/10/16 15:38:16;;;;;;;7.57;2.67;;;;;;;;;;5089097;28;20012;-72
2023/10/16 15:40:45;;;;;;;13.77;3.30;;;;;;;;;;5112616;28;20027;-72
2023/10/16 15:43:11;;;;;;;16.60;3.17;;;;;;;;;;5113067;28;20027;-73
2023/10/16 15:45:37;;;;;;;12.98;3.20;;;;;;;;;;5115543;28;20045;-74
2023/10/16 15:48:05;;;;;;;7.85;2.33;;;;;;;;;;5100173;28;20097;-71
2023/10/16 15:50:35;;;;;;;11.10;3.83;;;;;;;;;;5102337;28;20023;-71
2023/10/16 15:53:03;;;;;;;18.25;7.13;;;;;;;;;;5113573;28;20023;-72
2023/10/16 15:55:29;;;;;;;9.50;2.85;;;;;;;;;;5113231;28;20155;-72
2023/10/16 15:57:56;;;;;;;6.93;2.63;;;;;;;;;;5111388;28;20027;-73
2023/10/16 16:00:30;;;;;;;10.20;3.75;;;;;;;;;;5089419;28;20084;-74
2023/10/16 16:02:59;;;;;;;12.88;3.75;;;;;;;;;;5093797;28;20486;-74
2023/10/16 16:05:28;;;;;;;11.35;2.95;;;;;;;;;;5098156;28;20032;-73
2023/10/16 16:07:54;;;;;;;8.40;2.50;;;;;;;;;;5086881;28;20032;-73
2023/10/16 16:10:20;;;;;;;19.30;3.30;;;;;;;;;;5093052;28;20020;-72
2023/10/16 16:12:47;;;;;;;17.73;5.50;;;;;;;;;;5091879;28;20031;-74
2023/10/16 16:15:16;;;;;;;17.38;6.45;;;;;;;;;;5097086;28;20165;-71
2023/10/16 16:17:44;;;;;;;14.73;5.45;;;;;;;;;;5093593;28;20016;-71
2023/10/16 16:20:15;;;;;;;12.43;3.17;;;;;;;;;;5097320;28;20020;-74
2023/10/16 16:22:42;;;;;;;15.00;3.97;;;;;;;;;;5095277;28;20427;-72
2023/10/16 16:25:12;;;;;;;14.45;4.03;;;;;;;;;;5090226;28;20193;-71
2023/10/16 16:27:38;;;;;;;14.48;4.57;;;;;;;;;;5088831;28;20024;-72
2023/10/16 16:30:04;;;;;;;13.15;4.47;;;;;;;;;;5093420;28;20024;-73
2023/10/16 16:32:30;;;;;;;15.40;3.92;;;;;;;;;;5103385;28;20140;-70
2023/10/16 16:34:56;;;;;;;11.40;3.33;;;;;;;;;;5111918;28;20027;-71
2023/10/16 16:37:22;;;;;;;10.95;3.10;;;;;;;;;;5111876;28;20026;-72